sensor_id;sensor_type;location;lat;lon;timestamp;P1;durP1;ratioP1;P2;durP2;ratioP2
38427;SDS011;24211;49.980;19.776;2022-08-30T00:02:20;4.80;;;2.50;;
38427;SDS011;24211;49.980;19.776;2022-08-30T00:04:51;5.53;;;2.45;;
38427;SDS011;24211;49.980;19.776;2022-08-30T00:07:19;5.00;;;2.75;;
38427;SDS011;24211;49.980;19.776;2022-08-30T00:09:47;5.43;;;2.90;;
38427;SDS011;24211;49.980;19.776;2022-08-30T00:12:14;5.63;;;2.67;;
38427;SDS011;24211;49.980;19.776;2022-08-30T00:14:41;5.10;;;2.78;;
38427;SDS011;24211;49.980;19.776;2022-08-30T00:17:09;4.65;;;2.67;;
38427;SDS011;24211;49.980;19.776;2022-08-30T00:19:36;5.68;;;2.90;;
38427;SDS011;24211;49.980;19.776;2022-08-30T00:22:04;6.07;;;2.80;;
38427;SDS011;24211;49.980;19.776;2022-08-30T00:24:32;6.30;;;2.50;;
38427;SDS011;24211;49.980;19.776;2022-08-30T00:27:00;4.47;;;2.45;;
38427;SDS011;24211;49.980;19.776;2022-08-30T00:29:27;6.65;;;2.83;;
38427;SDS011;24211;49.980;19.776;2022-08-30T00:31:55;5.32;;;2.70;;
38427;SDS011;24211;49.980;19.776;2022-08-30T00:34:23;4.75;;;2.55;;
38427;SDS011;24211;49.980;19.776;2022-08-30T00:36:50;4.47;;;2.47;;
38427;SDS011;24211;49.980;19.776;2022-08-30T00:39:17;6.35;;;2.45;;
38427;SDS011;24211;49.980;19.776;2022-08-30T00:41:44;6.40;;;2.75;;
38427;SDS011;24211;49.980;19.776;2022-08-30T00:44:12;5.22;;;2.70;;
38427;SDS011;24211;49.980;19.776;2022-08-30T00:46:39;4.50;;;2.33;;
38427;SDS011;24211;49.980;19.776;2022-08-30T00:49:07;4.65;;;2.40;;
38427;SDS011;24211;49.980;19.776;2022-08-30T00:51:38;5.53;;;2.50;;
38427;SDS011;24211;49.980;19.776;2022-08-30T00:54:07;5.55;;;2.58;;
38427;SDS011;24211;49.980;19.776;2022-08-30T00:56:35;4.80;;;2.53;;
38427;SDS011;24211;49.980;19.776;2022-08-30T00:59:03;5.25;;;2.50;;
38427;SDS011;24211;49.980;19.776;2022-08-30T01:01:33;4.20;;;2.45;;
38427;SDS011;24211;49.980;19.776;2022-08-30T01:04:04;4.40;;;2.22;;
38427;SDS011;24211;49.980;19.776;2022-08-30T01:06:34;4.03;;;2.30;;
38427;SDS011;24211;49.980;19.776;2022-08-30T01:09:03;5.93;;;2.75;;
38427;SDS011;24211;49.980;19.776;2022-08-30T01:11:32;4.25;;;2.50;;
38427;SDS011;24211;49.980;19.776;2022-08-30T01:14:03;4.22;;;2.30;;
38427;SDS011;24211;49.980;19.776;2022-08-30T01:16:33;4.80;;;2.60;;
38427;SDS011;24211;49.980;19.776;2022-08-30T01:19:03;4.88;;;2.28;;
38427;SDS011;24211;49.980;19.776;2022-08-30T01:21:51;4.72;;;2.25;;
38427;SDS011;24211;49.980;19.776;2022-08-30T01:24:28;4.18;;;2.20;;
38427;SDS011;24211;49.980;19.776;2022-08-30T01:26:57;4.65;;;2.22;;
38427;SDS011;24211;49.980;19.776;2022-08-30T01:29:24;4.55;;;2.20;;
38427;SDS011;24211;49.980;19.776;2022-08-30T01:31:52;4.20;;;2.25;;
38427;SDS011;24211;49.980;19.776;2022-08-30T01:34:20;4.18;;;2.30;;
38427;SDS011;24211;49.980;19.776;2022-08-30T01:36:48;4.30;;;2.00;;
38427;SDS011;24211;49.980;19.776;2022-08-30T01:39:16;4.10;;;2.20;;
38427;SDS011;24211;49.980;19.776;2022-08-30T01:41:45;3.50;;;1.95;;
38427;SDS011;24211;49.980;19.776;2022-08-30T01:44:12;4.28;;;2.20;;
38427;SDS011;24211;49.980;19.776;2022-08-30T01:46:42;4.82;;;2.45;;
38427;SDS011;24211;49.980;19.776;2022-08-30T01:49:14;4.22;;;2.40;;
38427;SDS011;24211;49.980;19.776;2022-08-30T01:51:53;4.55;;;2.17;;
38427;SDS011;24211;49.980;19.776;2022-08-30T01:54:28;4.20;;;2.10;;
38427;SDS011;24211;49.980;19.776;2022-08-30T01:57:04;3.85;;;2.03;;
38427;SDS011;24211;49.980;19.776;2022-08-30T01:59:36;3.80;;;2.30;;
38427;SDS011;24211;49.980;19.776;2022-08-30T02:02:06;4.05;;;1.75;;
38427;SDS011;24211;49.980;19.776;2022-08-30T02:04:34;3.67;;;1.90;;
38427;SDS011;24211;49.980;19.776;2022-08-30T02:07:03;3.58;;;1.95;;
38427;SDS011;24211;49.980;19.776;2022-08-30T02:09:30;4.65;;;2.03;;
38427;SDS011;24211;49.980;19.776;2022-08-30T02:11:57;3.55;;;2.10;;
38427;SDS011;24211;49.980;19.776;2022-08-30T02:14:25;4.13;;;2.10;;
38427;SDS011;24211;49.980;19.776;2022-08-30T02:16:53;4.13;;;2.08;;
38427;SDS011;24211;49.980;19.776;2022-08-30T02:19:20;3.38;;;1.70;;
38427;SDS011;24211;49.980;19.776;2022-08-30T02:21:48;3.60;;;1.90;;
38427;SDS011;24211;49.980;19.776;2022-08-30T02:24:15;4.55;;;2.00;;
38427;SDS011;24211;49.980;19.776;2022-08-30T02:26:42;3.33;;;2.00;;
38427;SDS011;24211;49.980;19.776;2022-08-30T02:29:10;3.67;;;2.10;;
38427;SDS011;24211;49.980;19.776;2022-08-30T02:31:38;3.40;;;1.90;;
38427;SDS011;24211;49.980;19.776;2022-08-30T02:34:05;3.72;;;2.08;;
38427;SDS011;24211;49.980;19.776;2022-08-30T02:36:33;4.30;;;2.13;;
38427;SDS011;24211;49.980;19.776;2022-08-30T02:39:02;3.83;;;2.00;;
38427;SDS011;24211;49.980;19.776;2022-08-30T02:41:29;4.35;;;2.00;;
38427;SDS011;24211;49.980;19.776;2022-08-30T02:43:57;3.70;;;2.00;;
38427;SDS011;24211;49.980;19.776;2022-08-30T02:46:26;4.70;;;2.20;;
38427;SDS011;24211;49.980;19.776;2022-08-30T02:49:00;3.88;;;1.80;;
38427;SDS011;24211;49.980;19.776;2022-08-30T02:51:48;3.38;;;1.73;;
38427;SDS011;24211;49.980;19.776;2022-08-30T02:54:16;3.70;;;1.80;;
38427;SDS011;24211;49.980;19.776;2022-08-30T02:56:45;3.10;;;1.73;;
38427;SDS011;24211;49.980;19.776;2022-08-30T02:59:14;2.92;;;1.67;;
38427;SDS011;24211;49.980;19.776;2022-08-30T03:01:43;3.58;;;1.88;;
38427;SDS011;24211;49.980;19.776;2022-08-30T03:04:11;3.83;;;1.88;;
38427;SDS011;24211;49.980;19.776;2022-08-30T03:06:38;2.88;;;1.70;;
38427;SDS011;24211;49.980;19.776;2022-08-30T03:09:06;4.57;;;1.95;;
38427;SDS011;24211;49.980;19.776;2022-08-30T03:11:33;3.53;;;1.88;;
38427;SDS011;24211;49.980;19.776;2022-08-30T03:14:00;3.63;;;1.80;;
38427;SDS011;24211;49.980;19.776;2022-08-30T03:16:28;3.80;;;1.80;;
38427;SDS011;24211;49.980;19.776;2022-08-30T03:18:55;2.85;;;1.70;;
38427;SDS011;24211;49.980;19.776;2022-08-30T03:21:23;3.25;;;1.83;;
38427;SDS011;24211;49.980;19.776;2022-08-30T03:23:50;4.63;;;2.10;;
38427;SDS011;24211;49.980;19.776;2022-08-30T03:26:17;4.18;;;1.75;;
38427;SDS011;24211;49.980;19.776;2022-08-30T03:28:44;2.85;;;1.65;;
38427;SDS011;24211;49.980;19.776;2022-08-30T03:31:12;3.10;;;1.90;;
38427;SDS011;24211;49.980;19.776;2022-08-30T03:33:39;3.13;;;1.60;;
38427;SDS011;24211;49.980;19.776;2022-08-30T03:36:07;3.28;;;1.83;;
38427;SDS011;24211;49.980;19.776;2022-08-30T03:38:36;3.15;;;1.55;;
38427;SDS011;24211;49.980;19.776;2022-08-30T03:41:04;3.42;;;1.85;;
38427;SDS011;24211;49.980;19.776;2022-08-30T03:43:33;3.80;;;1.90;;
38427;SDS011;24211;49.980;19.776;2022-08-30T03:46:01;3.63;;;1.80;;
38427;SDS011;24211;49.980;19.776;2022-08-30T03:48:30;3.60;;;1.88;;
38427;SDS011;24211;49.980;19.776;2022-08-30T03:50:57;3.13;;;1.70;;
38427;SDS011;24211;49.980;19.776;2022-08-30T03:53:24;3.65;;;1.77;;
38427;SDS011;24211;49.980;19.776;2022-08-30T03:55:53;3.20;;;1.67;;
38427;SDS011;24211;49.980;19.776;2022-08-30T03:58:22;3.75;;;1.90;;
38427;SDS011;24211;49.980;19.776;2022-08-30T04:00:50;3.42;;;1.80;;
38427;SDS011;24211;49.980;19.776;2022-08-30T04:03:17;4.05;;;1.90;;
38427;SDS011;24211;49.980;19.776;2022-08-30T04:05:51;3.35;;;1.70;;
38427;SDS011;24211;49.980;19.776;2022-08-30T04:08:21;3.33;;;1.73;;
38427;SDS011;24211;49.980;19.776;2022-08-30T04:10:49;3.75;;;1.70;;
38427;SDS011;24211;49.980;19.776;2022-08-30T04:13:19;2.75;;;1.52;;
38427;SDS011;24211;49.980;19.776;2022-08-30T04:15:48;3.55;;;1.65;;
38427;SDS011;24211;49.980;19.776;2022-08-30T04:18:16;3.17;;;1.60;;
38427;SDS011;24211;49.980;19.776;2022-08-30T04:20:43;3.75;;;1.60;;
38427;SDS011;24211;49.980;19.776;2022-08-30T04:23:11;2.88;;;1.73;;
38427;SDS011;24211;49.980;19.776;2022-08-30T04:25:39;2.90;;;1.67;;
38427;SDS011;24211;49.980;19.776;2022-08-30T04:28:07;3.03;;;1.40;;
38427;SDS011;24211;49.980;19.776;2022-08-30T04:30:43;2.78;;;1.50;;
38427;SDS011;24211;49.980;19.776;2022-08-30T04:33:11;2.80;;;1.40;;
38427;SDS011;24211;49.980;19.776;2022-08-30T04:35:41;3.03;;;1.63;;
38427;SDS011;24211;49.980;19.776;2022-08-30T04:38:12;2.63;;;1.40;;
38427;SDS011;24211;49.980;19.776;2022-08-30T04:40:44;3.08;;;1.48;;
38427;SDS011;24211;49.980;19.776;2022-08-30T04:43:14;2.95;;;1.60;;
38427;SDS011;24211;49.980;19.776;2022-08-30T04:45:42;3.30;;;1.50;;
38427;SDS011;24211;49.980;19.776;2022-08-30T04:48:09;2.63;;;1.50;;
38427;SDS011;24211;49.980;19.776;2022-08-30T04:50:37;3.22;;;1.60;;
38427;SDS011;24211;49.980;19.776;2022-08-30T04:53:10;3.17;;;1.65;;
38427;SDS011;24211;49.980;19.776;2022-08-30T04:55:41;3.78;;;1.48;;
38427;SDS011;24211;49.980;19.776;2022-08-30T04:58:09;3.47;;;1.60;;
38427;SDS011;24211;49.980;19.776;2022-08-30T05:00:38;4.00;;;1.98;;
38427;SDS011;24211;49.980;19.776;2022-08-30T05:03:08;2.88;;;1.58;;
38427;SDS011;24211;49.980;19.776;2022-08-30T05:05:35;2.97;;;1.65;;
38427;SDS011;24211;49.980;19.776;2022-08-30T05:08:05;3.63;;;1.67;;
38427;SDS011;24211;49.980;19.776;2022-08-30T05:10:40;3.58;;;1.80;;
38427;SDS011;24211;49.980;19.776;2022-08-30T05:13:10;3.28;;;1.70;;
38427;SDS011;24211;49.980;19.776;2022-08-30T05:15:38;2.75;;;1.55;;
38427;SDS011;24211;49.980;19.776;2022-08-30T05:18:07;4.00;;;1.80;;
38427;SDS011;24211;49.980;19.776;2022-08-30T05:20:39;3.00;;;1.50;;
38427;SDS011;24211;49.980;19.776;2022-08-30T05:23:08;3.42;;;1.67;;
38427;SDS011;24211;49.980;19.776;2022-08-30T05:25:37;4.13;;;2.00;;
38427;SDS011;24211;49.980;19.776;2022-08-30T05:28:07;4.38;;;2.20;;
38427;SDS011;24211;49.980;19.776;2022-08-30T05:30:35;4.30;;;2.00;;
38427;SDS011;24211;49.980;19.776;2022-08-30T05:33:03;3.67;;;2.00;;
38427;SDS011;24211;49.980;19.776;2022-08-30T05:35:31;3.90;;;2.17;;
38427;SDS011;24211;49.980;19.776;2022-08-30T05:37:58;4.70;;;2.35;;
38427;SDS011;24211;49.980;19.776;2022-08-30T05:40:26;4.53;;;2.20;;
38427;SDS011;24211;49.980;19.776;2022-08-30T05:42:54;5.80;;;2.38;;
38427;SDS011;24211;49.980;19.776;2022-08-30T05:45:22;4.65;;;2.40;;
38427;SDS011;24211;49.980;19.776;2022-08-30T05:47:49;3.90;;;2.20;;
38427;SDS011;24211;49.980;19.776;2022-08-30T05:50:16;5.68;;;2.47;;
38427;SDS011;24211;49.980;19.776;2022-08-30T05:52:44;4.95;;;2.70;;
38427;SDS011;24211;49.980;19.776;2022-08-30T05:55:11;5.70;;;2.42;;
38427;SDS011;24211;49.980;19.776;2022-08-30T05:57:39;3.97;;;2.30;;
38427;SDS011;24211;49.980;19.776;2022-08-30T06:00:09;5.40;;;2.50;;
38427;SDS011;24211;49.980;19.776;2022-08-30T06:02:40;6.10;;;2.85;;
38427;SDS011;24211;49.980;19.776;2022-08-30T06:05:09;4.60;;;2.60;;
38427;SDS011;24211;49.980;19.776;2022-08-30T06:07:40;5.22;;;2.58;;
38427;SDS011;24211;49.980;19.776;2022-08-30T06:10:08;5.50;;;2.70;;
38427;SDS011;24211;49.980;19.776;2022-08-30T06:12:39;6.60;;;2.90;;
38427;SDS011;24211;49.980;19.776;2022-08-30T06:15:07;6.05;;;3.05;;
38427;SDS011;24211;49.980;19.776;2022-08-30T06:17:34;5.97;;;3.22;;
38427;SDS011;24211;49.980;19.776;2022-08-30T06:20:02;6.65;;;3.10;;
38427;SDS011;24211;49.980;19.776;2022-08-30T06:22:30;5.25;;;2.85;;
38427;SDS011;24211;49.980;19.776;2022-08-30T06:24:57;5.20;;;2.95;;
38427;SDS011;24211;49.980;19.776;2022-08-30T06:27:24;6.72;;;2.90;;
38427;SDS011;24211;49.980;19.776;2022-08-30T06:29:52;4.78;;;2.92;;
38427;SDS011;24211;49.980;19.776;2022-08-30T06:32:19;5.88;;;2.90;;
38427;SDS011;24211;49.980;19.776;2022-08-30T06:34:47;5.88;;;2.80;;
38427;SDS011;24211;49.980;19.776;2022-08-30T06:37:14;5.10;;;2.80;;
38427;SDS011;24211;49.980;19.776;2022-08-30T06:39:56;4.53;;;2.50;;
38427;SDS011;24211;49.980;19.776;2022-08-30T06:42:25;6.25;;;2.65;;
38427;SDS011;24211;49.980;19.776;2022-08-30T06:45:08;5.50;;;2.53;;
38427;SDS011;24211;49.980;19.776;2022-08-30T06:47:37;5.15;;;2.70;;
38427;SDS011;24211;49.980;19.776;2022-08-30T06:50:06;5.50;;;2.75;;
38427;SDS011;24211;49.980;19.776;2022-08-30T06:52:38;5.18;;;2.42;;
38427;SDS011;24211;49.980;19.776;2022-08-30T06:55:12;3.70;;;2.05;;
38427;SDS011;24211;49.980;19.776;2022-08-30T06:57:42;5.55;;;2.70;;
38427;SDS011;24211;49.980;19.776;2022-08-30T07:00:12;4.00;;;2.30;;
38427;SDS011;24211;49.980;19.776;2022-08-30T07:02:41;6.13;;;2.78;;
38427;SDS011;24211;49.980;19.776;2022-08-30T07:05:09;6.97;;;2.78;;
38427;SDS011;24211;49.980;19.776;2022-08-30T07:07:42;6.60;;;3.10;;
38427;SDS011;24211;49.980;19.776;2022-08-30T07:10:09;4.75;;;2.70;;
38427;SDS011;24211;49.980;19.776;2022-08-30T07:12:37;7.15;;;3.13;;
38427;SDS011;24211;49.980;19.776;2022-08-30T07:15:04;5.97;;;2.85;;
38427;SDS011;24211;49.980;19.776;2022-08-30T07:17:33;5.55;;;2.78;;
38427;SDS011;24211;49.980;19.776;2022-08-30T07:20:19;6.63;;;2.90;;
38427;SDS011;24211;49.980;19.776;2022-08-30T07:22:46;5.20;;;2.70;;
38427;SDS011;24211;49.980;19.776;2022-08-30T07:25:14;5.88;;;2.90;;
38427;SDS011;24211;49.980;19.776;2022-08-30T07:27:45;6.10;;;2.92;;
38427;SDS011;24211;49.980;19.776;2022-08-30T07:30:12;4.97;;;2.90;;
38427;SDS011;24211;49.980;19.776;2022-08-30T07:32:40;6.40;;;2.90;;
38427;SDS011;24211;49.980;19.776;2022-08-30T07:35:07;6.20;;;2.85;;
38427;SDS011;24211;49.980;19.776;2022-08-30T07:37:35;5.90;;;3.13;;
38427;SDS011;24211;49.980;19.776;2022-08-30T07:40:03;5.97;;;2.90;;
38427;SDS011;24211;49.980;19.776;2022-08-30T07:42:32;5.32;;;2.65;;
38427;SDS011;24211;49.980;19.776;2022-08-30T07:44:59;5.75;;;2.70;;
38427;SDS011;24211;49.980;19.776;2022-08-30T07:47:28;5.25;;;3.03;;
38427;SDS011;24211;49.980;19.776;2022-08-30T07:49:57;7.40;;;3.10;;
38427;SDS011;24211;49.980;19.776;2022-08-30T07:52:26;6.20;;;2.97;;
38427;SDS011;24211;49.980;19.776;2022-08-30T07:54:57;6.88;;;3.10;;
38427;SDS011;24211;49.980;19.776;2022-08-30T07:57:26;6.38;;;3.10;;
38427;SDS011;24211;49.980;19.776;2022-08-30T07:59:57;7.25;;;2.92;;
38427;SDS011;24211;49.980;19.776;2022-08-30T08:02:24;6.65;;;3.13;;
38427;SDS011;24211;49.980;19.776;2022-08-30T08:04:52;5.78;;;3.00;;
38427;SDS011;24211;49.980;19.776;2022-08-30T08:07:20;8.25;;;3.10;;
38427;SDS011;24211;49.980;19.776;2022-08-30T08:09:47;6.07;;;2.85;;
38427;SDS011;24211;49.980;19.776;2022-08-30T08:12:15;5.32;;;2.60;;
38427;SDS011;24211;49.980;19.776;2022-08-30T08:14:42;5.30;;;2.88;;
38427;SDS011;24211;49.980;19.776;2022-08-30T08:17:10;7.65;;;2.70;;
38427;SDS011;24211;49.980;19.776;2022-08-30T08:19:37;6.53;;;2.90;;
38427;SDS011;24211;49.980;19.776;2022-08-30T08:22:05;6.75;;;2.90;;
38427;SDS011;24211;49.980;19.776;2022-08-30T08:24:47;5.57;;;2.72;;
38427;SDS011;24211;49.980;19.776;2022-08-30T08:27:15;7.00;;;2.92;;
38427;SDS011;24211;49.980;19.776;2022-08-30T08:29:42;5.03;;;2.65;;
38427;SDS011;24211;49.980;19.776;2022-08-30T08:32:13;6.22;;;2.90;;
38427;SDS011;24211;49.980;19.776;2022-08-30T08:34:41;6.43;;;2.65;;
38427;SDS011;24211;49.980;19.776;2022-08-30T08:37:08;6.22;;;2.80;;
38427;SDS011;24211;49.980;19.776;2022-08-30T08:39:35;6.22;;;2.70;;
38427;SDS011;24211;49.980;19.776;2022-08-30T08:50:31;8.45;;;2.90;;
38427;SDS011;24211;49.980;19.776;2022-08-30T08:56:14;5.57;;;2.60;;
38427;SDS011;24211;49.980;19.776;2022-08-30T08:58:45;5.72;;;2.67;;
38427;SDS011;24211;49.980;19.776;2022-08-30T09:01:22;6.50;;;2.80;;
38427;SDS011;24211;49.980;19.776;2022-08-30T09:03:54;6.20;;;2.80;;
38427;SDS011;24211;49.980;19.776;2022-08-30T09:06:37;6.93;;;2.97;;
38427;SDS011;24211;49.980;19.776;2022-08-30T09:12:06;5.28;;;2.80;;
38427;SDS011;24211;49.980;19.776;2022-08-30T09:14:40;5.82;;;2.75;;
38427;SDS011;24211;49.980;19.776;2022-08-30T09:17:22;5.07;;;2.50;;
38427;SDS011;24211;49.980;19.776;2022-08-30T09:19:56;7.03;;;2.70;;
38427;SDS011;24211;49.980;19.776;2022-08-30T09:25:07;4.97;;;2.63;;
38427;SDS011;24211;49.980;19.776;2022-08-30T09:27:39;6.50;;;2.63;;
38427;SDS011;24211;49.980;19.776;2022-08-30T09:30:26;6.25;;;2.75;;
38427;SDS011;24211;49.980;19.776;2022-08-30T09:33:03;4.97;;;2.38;;
38427;SDS011;24211;49.980;19.776;2022-08-30T09:35:49;6.20;;;2.20;;
38427;SDS011;24211;49.980;19.776;2022-08-30T09:38:25;5.65;;;2.10;;
38427;SDS011;24211;49.980;19.776;2022-08-30T09:41:24;4.75;;;2.30;;
38427;SDS011;24211;49.980;19.776;2022-08-30T09:44:13;5.22;;;2.45;;
38427;SDS011;24211;49.980;19.776;2022-08-30T09:49:29;4.22;;;1.95;;
38427;SDS011;24211;49.980;19.776;2022-08-30T10:13:43;4.70;;;2.50;;
38427;SDS011;24211;49.980;19.776;2022-08-30T10:19:24;4.68;;;2.38;;
38427;SDS011;24211;49.980;19.776;2022-08-30T10:22:16;6.15;;;2.47;;
38427;SDS011;24211;49.980;19.776;2022-08-30T10:25:09;4.38;;;2.40;;
38427;SDS011;24211;49.980;19.776;2022-08-30T10:28:02;4.82;;;2.20;;
38427;SDS011;24211;49.980;19.776;2022-08-30T10:30:36;4.65;;;2.40;;
38427;SDS011;24211;49.980;19.776;2022-08-30T10:33:14;5.18;;;2.50;;
38427;SDS011;24211;49.980;19.776;2022-08-30T10:35:56;4.15;;;2.10;;
38427;SDS011;24211;49.980;19.776;2022-08-30T10:38:29;4.35;;;2.20;;
38427;SDS011;24211;49.980;19.776;2022-08-30T10:41:12;3.42;;;1.95;;
38427;SDS011;24211;49.980;19.776;2022-08-30T10:50:13;3.78;;;2.08;;
38427;SDS011;24211;49.980;19.776;2022-08-30T10:52:52;3.53;;;1.83;;
38427;SDS011;24211;49.980;19.776;2022-08-30T10:55:30;4.28;;;2.20;;
38427;SDS011;24211;49.980;19.776;2022-08-30T10:58:03;4.65;;;2.28;;
38427;SDS011;24211;49.980;19.776;2022-08-30T11:00:38;5.00;;;2.10;;
38427;SDS011;24211;49.980;19.776;2022-08-30T11:06:37;3.92;;;2.15;;
38427;SDS011;24211;49.980;19.776;2022-08-30T11:12:15;3.40;;;1.92;;
38427;SDS011;24211;49.980;19.776;2022-08-30T11:15:16;3.75;;;2.08;;
38427;SDS011;24211;49.980;19.776;2022-08-30T11:17:59;5.28;;;2.20;;
38427;SDS011;24211;49.980;19.776;2022-08-30T11:20:39;3.78;;;1.90;;
38427;SDS011;24211;49.980;19.776;2022-08-30T11:23:23;3.92;;;1.90;;
38427;SDS011;24211;49.980;19.776;2022-08-30T11:33:48;4.07;;;2.00;;
38427;SDS011;24211;49.980;19.776;2022-08-30T11:39:05;4.57;;;1.95;;
38427;SDS011;24211;49.980;19.776;2022-08-30T11:46:48;2.90;;;1.70;;
38427;SDS011;24211;49.980;19.776;2022-08-30T11:57:59;1.92;;;1.40;;
38427;SDS011;24211;49.980;19.776;2022-08-30T12:00:39;2.40;;;1.38;;
38427;SDS011;24211;49.980;19.776;2022-08-30T12:06:05;3.20;;;1.55;;
38427;SDS011;24211;49.980;19.776;2022-08-30T12:08:40;2.72;;;1.45;;
38427;SDS011;24211;49.980;19.776;2022-08-30T12:14:34;3.95;;;1.73;;
38427;SDS011;24211;49.980;19.776;2022-08-30T12:20:17;3.58;;;1.70;;
38427;SDS011;24211;49.980;19.776;2022-08-30T12:22:49;3.75;;;1.70;;
38427;SDS011;24211;49.980;19.776;2022-08-30T12:25:32;2.55;;;1.60;;
38427;SDS011;24211;49.980;19.776;2022-08-30T12:28:07;3.45;;;1.75;;
38427;SDS011;24211;49.980;19.776;2022-08-30T12:30:52;3.05;;;1.60;;
38427;SDS011;24211;49.980;19.776;2022-08-30T12:33:24;3.72;;;1.60;;
38427;SDS011;24211;49.980;19.776;2022-08-30T12:36:10;3.00;;;1.50;;
38427;SDS011;24211;49.980;19.776;2022-08-30T12:39:11;2.95;;;1.52;;
38427;SDS011;24211;49.980;19.776;2022-08-30T12:41:44;2.90;;;1.60;;
38427;SDS011;24211;49.980;19.776;2022-08-30T12:44:16;3.13;;;1.70;;
38427;SDS011;24211;49.980;19.776;2022-08-30T12:46:51;2.80;;;1.58;;
38427;SDS011;24211;49.980;19.776;2022-08-30T12:49:29;2.38;;;1.30;;
38427;SDS011;24211;49.980;19.776;2022-08-30T12:55:07;3.88;;;1.85;;
38427;SDS011;24211;49.980;19.776;2022-08-30T12:58:01;4.88;;;2.38;;
38427;SDS011;24211;49.980;19.776;2022-08-30T13:00:38;7.15;;;2.90;;
38427;SDS011;24211;49.980;19.776;2022-08-30T13:06:02;6.63;;;3.28;;
38427;SDS011;24211;49.980;19.776;2022-08-30T13:13:48;6.10;;;3.00;;
38427;SDS011;24211;49.980;19.776;2022-08-30T13:16:25;6.00;;;3.00;;
38427;SDS011;24211;49.980;19.776;2022-08-30T13:22:02;5.15;;;2.65;;
38427;SDS011;24211;49.980;19.776;2022-08-30T13:24:31;7.93;;;2.50;;
38427;SDS011;24211;49.980;19.776;2022-08-30T13:27:03;4.45;;;2.10;;
38427;SDS011;24211;49.980;19.776;2022-08-30T13:29:35;3.83;;;2.13;;
38427;SDS011;24211;49.980;19.776;2022-08-30T13:32:03;3.75;;;2.13;;
38427;SDS011;24211;49.980;19.776;2022-08-30T13:34:31;4.10;;;1.90;;
38427;SDS011;24211;49.980;19.776;2022-08-30T13:37:25;3.45;;;2.10;;
38427;SDS011;24211;49.980;19.776;2022-08-30T13:40:13;3.22;;;1.90;;
38427;SDS011;24211;49.980;19.776;2022-08-30T13:42:43;3.50;;;1.90;;
38427;SDS011;24211;49.980;19.776;2022-08-30T13:45:12;3.97;;;2.15;;
38427;SDS011;24211;49.980;19.776;2022-08-30T13:48:02;3.08;;;1.95;;
38427;SDS011;24211;49.980;19.776;2022-08-30T13:50:32;3.72;;;1.83;;
38427;SDS011;24211;49.980;19.776;2022-08-30T13:52:59;3.40;;;2.00;;
38427;SDS011;24211;49.980;19.776;2022-08-30T13:55:27;2.83;;;1.70;;
38427;SDS011;24211;49.980;19.776;2022-08-30T13:57:55;4.80;;;1.77;;
38427;SDS011;24211;49.980;19.776;2022-08-30T14:00:24;2.85;;;1.80;;
38427;SDS011;24211;49.980;19.776;2022-08-30T14:02:53;2.65;;;1.75;;
38427;SDS011;24211;49.980;19.776;2022-08-30T14:05:32;2.90;;;1.58;;
38427;SDS011;24211;49.980;19.776;2022-08-30T14:08:27;2.83;;;1.63;;
38427;SDS011;24211;49.980;19.776;2022-08-30T14:11:15;3.08;;;1.80;;
38427;SDS011;24211;49.980;19.776;2022-08-30T14:13:47;2.92;;;1.65;;
38427;SDS011;24211;49.980;19.776;2022-08-30T14:16:37;3.33;;;1.88;;
38427;SDS011;24211;49.980;19.776;2022-08-30T14:19:09;3.22;;;1.80;;
38427;SDS011;24211;49.980;19.776;2022-08-30T14:21:38;3.15;;;1.75;;
38427;SDS011;24211;49.980;19.776;2022-08-30T14:24:06;4.13;;;2.10;;
38427;SDS011;24211;49.980;19.776;2022-08-30T14:26:36;2.97;;;1.70;;
38427;SDS011;24211;49.980;19.776;2022-08-30T14:29:11;4.00;;;1.90;;
38427;SDS011;24211;49.980;19.776;2022-08-30T14:31:43;4.18;;;2.10;;
38427;SDS011;24211;49.980;19.776;2022-08-30T14:34:12;4.45;;;2.00;;
38427;SDS011;24211;49.980;19.776;2022-08-30T14:36:41;3.42;;;2.03;;
38427;SDS011;24211;49.980;19.776;2022-08-30T14:39:13;4.65;;;1.90;;
38427;SDS011;24211;49.980;19.776;2022-08-30T14:41:45;5.45;;;2.20;;
38427;SDS011;24211;49.980;19.776;2022-08-30T14:44:17;3.60;;;2.15;;
38427;SDS011;24211;49.980;19.776;2022-08-30T14:46:46;4.68;;;2.00;;
38427;SDS011;24211;49.980;19.776;2022-08-30T14:49:17;3.28;;;1.90;;
38427;SDS011;24211;49.980;19.776;2022-08-30T14:51:45;3.90;;;1.92;;
38427;SDS011;24211;49.980;19.776;2022-08-30T14:54:15;3.78;;;2.10;;
38427;SDS011;24211;49.980;19.776;2022-08-30T14:56:47;4.07;;;2.30;;
38427;SDS011;24211;49.980;19.776;2022-08-30T14:59:14;3.85;;;2.08;;
38427;SDS011;24211;49.980;19.776;2022-08-30T15:01:42;3.28;;;1.60;;
38427;SDS011;24211;49.980;19.776;2022-08-30T15:04:11;3.55;;;1.67;;
38427;SDS011;24211;49.980;19.776;2022-08-30T15:06:41;3.13;;;1.80;;
38427;SDS011;24211;49.980;19.776;2022-08-30T15:09:15;3.50;;;1.77;;
38427;SDS011;24211;49.980;19.776;2022-08-30T15:11:49;3.17;;;1.67;;
38427;SDS011;24211;49.980;19.776;2022-08-30T15:14:21;4.30;;;1.90;;
38427;SDS011;24211;49.980;19.776;2022-08-30T15:16:52;4.10;;;1.90;;
38427;SDS011;24211;49.980;19.776;2022-08-30T15:19:20;3.05;;;1.70;;
38427;SDS011;24211;49.980;19.776;2022-08-30T15:21:49;3.30;;;1.90;;
38427;SDS011;24211;49.980;19.776;2022-08-30T15:24:18;3.28;;;1.88;;
38427;SDS011;24211;49.980;19.776;2022-08-30T15:26:57;4.18;;;1.80;;
38427;SDS011;24211;49.980;19.776;2022-08-30T15:29:27;3.58;;;1.90;;
38427;SDS011;24211;49.980;19.776;2022-08-30T15:31:58;3.55;;;1.80;;
38427;SDS011;24211;49.980;19.776;2022-08-30T15:34:28;3.05;;;1.60;;
38427;SDS011;24211;49.980;19.776;2022-08-30T15:36:57;3.47;;;1.90;;
38427;SDS011;24211;49.980;19.776;2022-08-30T15:39:24;2.83;;;1.85;;
38427;SDS011;24211;49.980;19.776;2022-08-30T15:41:52;3.78;;;1.80;;
38427;SDS011;24211;49.980;19.776;2022-08-30T15:44:28;3.50;;;1.77;;
38427;SDS011;24211;49.980;19.776;2022-08-30T15:46:57;3.40;;;1.80;;
38427;SDS011;24211;49.980;19.776;2022-08-30T15:49:24;3.10;;;1.80;;
38427;SDS011;24211;49.980;19.776;2022-08-30T15:51:52;3.17;;;2.00;;
38427;SDS011;24211;49.980;19.776;2022-08-30T15:54:20;3.95;;;1.77;;
38427;SDS011;24211;49.980;19.776;2022-08-30T15:56:49;3.55;;;1.70;;
38427;SDS011;24211;49.980;19.776;2022-08-30T15:59:26;3.75;;;1.75;;
38427;SDS011;24211;49.980;19.776;2022-08-30T16:02:04;4.05;;;1.60;;
38427;SDS011;24211;49.980;19.776;2022-08-30T16:04:32;2.95;;;1.70;;
38427;SDS011;24211;49.980;19.776;2022-08-30T16:06:59;3.10;;;1.70;;
38427;SDS011;24211;49.980;19.776;2022-08-30T16:09:27;2.95;;;1.70;;
38427;SDS011;24211;49.980;19.776;2022-08-30T16:11:58;2.58;;;1.30;;
38427;SDS011;24211;49.980;19.776;2022-08-30T16:14:27;2.38;;;1.52;;
38427;SDS011;24211;49.980;19.776;2022-08-30T16:16:56;2.70;;;1.40;;
38427;SDS011;24211;49.980;19.776;2022-08-30T16:19:24;2.55;;;1.33;;
38427;SDS011;24211;49.980;19.776;2022-08-30T16:21:52;4.05;;;1.27;;
38427;SDS011;24211;49.980;19.776;2022-08-30T16:24:20;2.55;;;1.40;;
38427;SDS011;24211;49.980;19.776;2022-08-30T16:26:49;2.85;;;1.40;;
38427;SDS011;24211;49.980;19.776;2022-08-30T16:29:16;2.13;;;1.27;;
38427;SDS011;24211;49.980;19.776;2022-08-30T16:31:45;2.45;;;1.05;;
38427;SDS011;24211;49.980;19.776;2022-08-30T16:34:15;1.88;;;1.17;;
38427;SDS011;24211;49.980;19.776;2022-08-30T16:36:46;2.25;;;1.50;;
38427;SDS011;24211;49.980;19.776;2022-08-30T16:39:14;3.13;;;1.60;;
38427;SDS011;24211;49.980;19.776;2022-08-30T16:41:42;2.33;;;1.30;;
38427;SDS011;24211;49.980;19.776;2022-08-30T16:44:11;3.47;;;1.58;;